Time;durP1;ratioP1;P1;durP2;ratioP2;P2;SDS_P1;SDS_P2;PMS_P1;PMS_P2;Temp;Humidity;BMP_temperature;BMP_pressure;BME280_temperature;BME280_humidity;BME280_pressure;Samples;Min_cycle;Max_cycle;Signal;HPM_P1;HPM_P2
2021/08/01 00:01:30;;;;;;;8.55;3.50;;;;;;;17.53;65.53;100649.63;5095666;28;20059;-59
2021/08/01 00:03:58;;;;;;;8.10;3.13;;;;;;;17.92;64.63;100653.31;5077742;28;20459;-57
2021/08/01 00:06:26;;;;;;;12.60;3.53;;;;;;;18.00;63.92;100652.28;5061086;28;20051;-57
2021/08/01 00:08:54;;;;;;;13.70;3.53;;;;;;;17.90;64.16;100656.44;5095820;28;20052;-59
2021/08/01 00:11:21;;;;;;;12.10;3.20;;;;;;;17.50;65.56;100655.91;5095769;28;20578;-57
2021/08/01 00:13:49;;;;;;;10.85;3.53;;;;;;;17.59;65.60;100653.72;5095507;28;20059;-57
2021/08/01 00:16:16;;;;;;;11.25;3.60;;;;;;;17.51;65.61;100654.75;5096004;28;20056;-60
2021/08/01 00:18:44;;;;;;;10.88;3.28;;;;;;;17.76;65.11;100653.34;5095652;28;20087;-58
2021/08/01 00:21:11;;;;;;;11.05;3.50;;;;;;;17.81;64.55;100655.84;5096078;28;20055;-57
2021/08/01 00:23:38;;;;;;;8.88;3.45;;;;;;;18.02;63.85;100655.53;5095938;28;20044;-57
2021/08/01 00:26:05;;;;;;;8.95;3.15;;;;;;;17.83;64.49;100656.31;5076934;28;20048;-57
2021/08/01 00:28:32;;;;;;;12.90;3.17;;;;;;;18.05;63.96;100649.22;5095076;28;20056;-59
2021/08/01 00:31:00;;;;;;;10.55;3.28;;;;;;;18.06;63.83;100653.63;5095138;28;20051;-59
2021/08/01 00:33:28;;;;;;;11.55;3.53;;;;;;;18.07;63.48;100655.22;5095191;28;20114;-57
2021/08/01 00:35:56;;;;;;;9.80;3.30;;;;;;;17.77;64.17;100662.50;5094362;28;20402;-57
2021/08/01 00:38:23;;;;;;;9.15;3.08;;;;;;;17.74;64.83;100657.66;5095160;28;20044;-59
2021/08/01 00:40:51;;;;;;;8.75;2.83;;;;;;;17.65;65.06;100659.84;5094931;28;20055;-57
2021/08/01 00:43:18;;;;;;;13.27;3.58;;;;;;;17.69;65.39;100657.94;5094675;28;20538;-55
2021/08/01 00:45:45;;;;;;;9.23;3.30;;;;;;;17.49;65.12;100653.47;5094814;28;20048;-56
2021/08/01 00:48:13;;;;;;;8.82;3.28;;;;;;;17.18;66.78;100661.81;5076719;28;20075;-57
2021/08/01 00:50:43;;;;;;;11.50;3.17;;;;;;;17.27;66.43;100659.66;5076423;28;20056;-57
2021/08/01 00:53:12;;;;;;;7.72;3.05;;;;;;;17.30;66.38;100665.31;5094780;28;20051;-59
2021/08/01 00:55:40;;;;;;;7.88;3.13;;;;;;;17.44;66.12;100659.28;5092770;28;20048;-59
2021/08/01 00:58:08;;;;;;;6.53;3.13;;;;;;;17.64;65.76;100658.22;5074393;28;20052;-57
2021/08/01 01:03:45;;;;;;;9.48;3.08;;;;;;;17.83;65.05;100661.88;5059384;28;20535;-57
2021/08/01 01:06:46;;;;;;;8.40;3.22;;;;;;;17.80;65.00;100664.59;5057125;28;20063;-57
2021/08/01 01:09:26;;;;;;;13.85;3.25;;;;;;;17.82;65.14;100663.03;5056477;28;20048;-56
2021/08/01 01:11:59;;;;;;;12.18;3.15;;;;;;;17.65;65.31;100662.63;5056763;28;20710;-56
2021/08/01 01:14:29;;;;;;;7.80;3.00;;;;;;;17.37;66.50;100670.25;5039939;28;20045;-57
2021/08/01 01:17:01;;;;;;;9.63;3.13;;;;;;;17.63;66.28;100662.97;5039464;28;20499;-56
2021/08/01 01:20:06;;;;;;;9.80;3.30;;;;;;;17.55;66.09;100664.00;5056326;28;20053;-58
2021/08/01 01:22:38;;;;;;;10.82;3.47;;;;;;;17.57;66.02;100667.19;5074050;28;20052;-58
2021/08/01 01:25:38;;;;;;;9.70;3.10;;;;;;;17.84;65.47;100654.31;5058985;28;20139;-58
2021/08/01 01:28:10;;;;;;;8.47;2.87;;;;;;;17.92;64.71;100654.09;5039699;28;20052;-59
2021/08/01 01:30:42;;;;;;;9.68;3.33;;;;;;;17.74;65.15;100661.28;5055974;28;20773;-57
2021/08/01 01:33:11;;;;;;;7.18;3.17;;;;;;;18.05;64.17;100659.53;5055218;28;20076;-58
2021/08/01 01:35:46;;;;;;;12.73;2.92;;;;;;;17.84;64.82;100662.66;5038747;28;20060;-58
2021/08/01 01:38:14;;;;;;;10.73;2.72;;;;;;;18.22;63.71;100668.28;5023097;28;20433;-58
2021/08/01 01:41:00;;;;;;;8.07;3.10;;;;;;;17.86;64.50;100663.94;5059837;28;20041;-56
2021/08/01 01:43:51;;;;;;;6.85;3.15;;;;;;;18.08;64.43;100667.97;5042544;28;20059;-57
2021/08/01 01:46:18;;;;;;;9.33;3.10;;;;;;;18.17;64.22;100667.78;5056147;28;20053;-58
2021/08/01 01:48:48;;;;;;;13.07;3.40;;;;;;;18.24;64.06;100663.16;5055590;28;20399;-58
2021/08/01 01:51:16;;;;;;;9.80;2.90;;;;;;;18.15;64.26;100662.56;5055791;28;20301;-57
2021/08/01 01:53:43;;;;;;;9.13;3.20;;;;;;;18.09;64.03;100661.25;5039269;28;20037;-59
2021/08/01 01:56:13;;;;;;;9.73;3.17;;;;;;;17.92;64.48;100658.88;5061479;28;20067;-57
2021/08/01 01:58:42;;;;;;;7.78;2.92;;;;;;;18.07;64.16;100651.63;5075795;28;20063;-58
2021/08/01 02:01:11;;;;;;;9.88;3.03;;;;;;;18.02;63.91;100652.75;5093810;28;20533;-58
2021/08/01 02:03:38;;;;;;;9.10;3.10;;;;;;;17.95;64.13;100653.41;5075497;28;20415;-59
2021/08/01 02:06:09;;;;;;;8.95;2.83;;;;;;;17.95;64.54;100647.81;5076048;28;20052;-58
2021/08/01 02:08:57;;;;;;;8.70;2.70;;;;;;;18.12;64.09;100645.75;5094017;28;20055;-58
2021/08/01 02:12:14;;;;;;;10.75;2.97;;;;;;;18.02;64.38;100649.94;5075633;28;20653;-58
2021/08/01 02:15:04;;;;;;;11.60;2.80;;;;;;;17.88;64.75;100653.22;5093469;28;20479;-57
2021/08/01 02:17:41;;;;;;;9.55;3.20;;;;;;;17.85;64.76;100648.38;5075623;28;20048;-59
2021/08/01 02:20:12;;;;;;;8.07;3.28;;;;;;;17.72;65.56;100644.09;5075343;28;20048;-57
2021/08/01 02:22:52;;;;;;;9.60;3.00;;;;;;;18.01;65.11;100650.31;5060470;28;20062;-57
2021/08/01 02:25:19;;;;;;;8.75;2.97;;;;;;;17.87;65.19;100648.00;5075811;28;20126;-56
2021/08/01 02:27:49;;;;;;;9.38;3.28;;;;;;;18.05;64.86;100653.97;5075276;28;20066;-58
2021/08/01 02:30:19;;;;;;;11.07;3.40;;;;;;;18.12;64.68;100645.75;5059028;28;20048;-59
2021/08/01 02:32:47;;;;;;;7.78;2.90;;;;;;;18.27;64.19;100650.50;5075600;28;20052;-60
2021/08/01 02:35:17;;;;;;;9.25;3.15;;;;;;;17.97;65.11;100644.66;5058501;28;20399;-59
2021/08/01 02:37:45;;;;;;;7.15;3.08;;;;;;;17.92;65.60;100645.75;5058724;28;20044;-56
2021/08/01 02:40:14;;;;;;;9.18;3.08;;;;;;;18.12;64.87;100645.75;5093613;28;20044;-59
2021/08/01 02:42:44;;;;;;;8.75;3.75;;;;;;;17.86;65.87;100644.44;5075709;28;20796;-57
2021/08/01 02:45:12;;;;;;;10.63;3.30;;;;;;;17.88;66.07;100633.72;5058766;28;20056;-58
2021/08/01 02:47:40;;;;;;;7.90;3.15;;;;;;;18.02;65.72;100636.00;5075084;28;20060;-61
2021/08/01 02:50:09;;;;;;;13.93;3.17;;;;;;;18.08;65.40;100639.31;5075235;28;20051;-57
2021/08/01 02:52:49;;;;;;;9.30;3.22;;;;;;;18.10;65.04;100637.78;5075457;28;20055;-56
2021/08/01 02:55:17;;;;;;;8.73;3.10;;;;;;;17.78;65.88;100639.84;5075457;28;20056;-58
2021/08/01 02:57:46;;;;;;;11.20;3.15;;;;;;;17.83;65.94;100639.59;5074148;28;20526;-56
2021/08/01 03:00:15;;;;;;;10.77;3.30;;;;;;;17.96;65.58;100651.41;5042224;28;20436;-58
2021/08/01 03:02:46;;;;;;;9.82;2.95;;;;;;;17.96;65.44;100651.41;5042306;28;20056;-59
2021/08/01 03:05:15;;;;;;;9.90;3.10;;;;;;;17.86;65.57;100654.75;5076695;28;20055;-59
2021/08/01 03:07:43;;;;;;;6.03;2.65;;;;;;;17.78;65.55;100653.78;5042353;28;20060;-61
2021/08/01 03:10:15;;;;;;;9.52;2.97;;;;;;;17.63;65.83;100651.84;5042484;28;20040;-58
2021/08/01 03:12:50;;;;;;;7.38;2.90;;;;;;;17.63;66.03;100651.84;5076604;28;20059;-60
2021/08/01 03:15:20;;;;;;;8.70;3.45;;;;;;;17.57;66.54;100653.28;5058546;28;20487;-57
2021/08/01 03:17:48;;;;;;;9.70;3.00;;;;;;;17.75;65.54;100648.94;5076506;28;20059;-57
2021/08/01 03:20:17;;;;;;;11.00;2.95;;;;;;;17.66;66.08;100647.53;5076544;28;20051;-57
2021/08/01 03:23:03;;;;;;;12.75;3.70;;;;;;;17.37;66.75;100650.75;5061513;28;20044;-58
2021/08/01 03:25:50;;;;;;;11.27;3.22;;;;;;;17.28;67.25;100645.38;5076558;28;20053;-58
2021/08/01 03:28:17;;;;;;;8.02;3.10;;;;;;;17.25;67.24;100651.66;5075804;28;20056;-58
2021/08/01 03:30:45;;;;;;;9.68;3.40;;;;;;;16.66;69.14;100648.94;5058265;28;20052;-57
2021/08/01 03:33:13;;;;;;;10.02;3.10;;;;;;;16.78;69.28;100648.84;5076129;28;20064;-57
2021/08/01 03:35:40;;;;;;;10.70;3.35;;;;;;;17.10;68.36;100646.91;5077116;28;20439;-56
2021/08/01 03:38:20;;;;;;;;;;;;;;;17.37;67.50;100642.41;5059111;28;20067;-58
2021/08/01 03:41:05;;;;;;;11.02;3.13;;;;;;;17.45;67.11;100647.78;5076865;28;20295;-58
2021/08/01 03:43:34;;;;;;;7.93;2.95;;;;;;;17.03;67.55;100643.97;5076269;28;20045;-58
2021/08/01 03:46:01;;;;;;;13.07;3.40;;;;;;;16.96;68.10;100643.78;5058812;28;20431;-59
2021/08/01 03:48:28;;;;;;;8.30;2.70;;;;;;;16.80;68.86;100640.97;5075685;28;20431;-59
2021/08/01 03:50:55;;;;;;;7.78;3.00;;;;;;;16.88;68.82;100642.75;5075946;28;20059;-57
2021/08/01 03:53:22;;;;;;;9.23;3.42;;;;;;;17.02;68.48;100650.66;5075751;28;20051;-58
2021/08/01 03:55:50;;;;;;;11.15;3.13;;;;;;;17.10;68.30;100649.72;5078692;28;20064;-60
2021/08/01 03:58:17;;;;;;;9.48;3.00;;;;;;;16.96;68.56;100642.94;5095570;28;20044;-56
2021/08/01 04:00:47;;;;;;;8.98;3.05;;;;;;;17.30;67.74;100651.41;5095952;28;20090;-57
2021/08/01 04:03:15;;;;;;;11.10;2.95;;;;;;;17.38;67.04;100649.59;5095910;28;20048;-63
2021/08/01 04:05:43;;;;;;;9.55;3.35;;;;;;;17.25;67.51;100637.75;5095702;28;20040;-58
2021/08/01 04:08:10;;;;;;;8.73;3.20;;;;;;;17.32;67.41;100642.69;5095837;28;20048;-56
2021/08/01 04:10:37;;;;;;;9.00;2.97;;;;;;;17.50;66.65;100630.03;5094660;28;20075;-58
2021/08/01 04:13:05;;;;;;;9.77;3.30;;;;;;;17.45;67.03;100630.28;5060515;28;20044;-64
2021/08/01 04:15:32;;;;;;;9.23;3.15;;;;;;;17.23;67.98;100639.25;5095818;28;20047;-57
2021/08/01 04:18:03;;;;;;;10.20;3.92;;;;;;;17.46;67.48;100631.88;5077614;28;20522;-61
2021/08/01 04:20:30;;;;;;;11.75;3.70;;;;;;;17.54;67.55;100637.28;5095848;28;20059;-57
2021/08/01 04:22:57;;;;;;;8.88;2.90;;;;;;;17.70;66.61;100640.06;5095552;28;20040;-59
2021/08/01 04:25:25;;;;;;;11.07;3.10;;;;;;;17.57;67.10;100644.91;5076984;28;20063;-59
2021/08/01 04:27:53;;;;;;;9.40;3.08;;;;;;;17.55;67.22;100647.28;5095096;28;20056;-59
2021/08/01 04:30:20;;;;;;;10.48;3.00;;;;;;;17.35;67.85;100645.56;5094977;28;20051;-58
2021/08/01 04:32:47;;;;;;;9.65;3.28;;;;;;;17.34;67.63;100646.72;5095150;28;20048;-57
2021/08/01 04:35:15;;;;;;;7.32;3.00;;;;;;;17.40;67.83;100641.69;5095043;28;20044;-57
2021/08/01 04:37:42;;;;;;;9.80;3.47;;;;;;;17.26;68.19;100646.91;5095020;28;20059;-58
2021/08/01 04:40:09;;;;;;;9.43;3.47;;;;;;;17.28;68.59;100645.38;5095026;28;20051;-58
2021/08/01 04:42:37;;;;;;;10.18;3.53;;;;;;;17.31;68.56;100650.22;5094924;28;20063;-56
2021/08/01 04:45:05;;;;;;;12.15;3.40;;;;;;;17.21;68.43;100645.19;5094917;28;20066;-57
2021/08/01 04:47:32;;;;;;;10.85;3.83;;;;;;;17.11;68.70;100645.75;5094819;28;20048;-58
2021/08/01 04:50:00;;;;;;;11.68;3.35;;;;;;;17.09;69.00;100647.25;5094821;28;20430;-56
2021/08/01 04:52:27;;;;;;;7.70;2.85;;;;;;;17.28;68.06;100647.34;5094931;28;20044;-58
2021/08/01 04:54:54;;;;;;;11.23;3.38;;;;;;;17.15;68.36;100645.84;5094821;28;20542;-58
2021/08/01 04:57:21;;;;;;;11.55;3.10;;;;;;;17.19;68.17;100647.53;5078893;28;20466;-57
2021/08/01 04:59:49;;;;;;;13.57;3.10;;;;;;;17.17;67.96;100649.06;5056766;28;20056;-57
2021/08/01 05:02:17;;;;;;;13.02;2.80;;;;;;;17.31;67.91;100646.66;5074410;28;20059;-59
2021/08/01 05:04:44;;;;;;;10.52;3.13;;;;;;;17.35;67.35;100639.16;5074414;28;20051;-58
2021/08/01 05:07:11;;;;;;;9.57;3.63;;;;;;;17.07;68.34;100649.63;5074285;28;20048;-58
2021/08/01 05:09:38;;;;;;;9.85;3.00;;;;;;;16.95;68.77;100647.69;5074483;28;20055;-57
2021/08/01 05:12:06;;;;;;;8.93;3.15;;;;;;;16.92;69.08;100651.22;5074563;28;20048;-58
2021/08/01 05:14:33;;;;;;;7.85;3.08;;;;;;;16.97;69.24;100644.56;5055815;28;20055;-58
2021/08/01 05:17:00;;;;;;;11.40;3.13;;;;;;;16.85;69.25;100651.84;5074433;28;20056;-56
2021/08/01 05:19:27;;;;;;;8.90;3.65;;;;;;;16.63;70.40;100644.06;5073983;28;20051;-58
2021/08/01 05:21:55;;;;;;;12.00;3.92;;;;;;;16.42;71.41;100640.66;5073948;28;20075;-59
2021/08/01 05:24:22;;;;;;;11.05;3.58;;;;;;;16.15;72.78;100651.75;5074009;28;20052;-58
2021/08/01 05:26:49;;;;;;;13.68;3.25;;;;;;;16.45;72.18;100653.03;5073577;28;20059;-56
2021/08/01 05:29:16;;;;;;;11.98;3.63;;;;;;;16.71;70.69;100648.66;5073766;28;20049;-56
2021/08/01 05:31:44;;;;;;;10.23;3.50;;;;;;;16.47;71.55;100653.53;5075033;28;20063;-58
2021/08/01 05:34:11;;;;;;;15.80;3.78;;;;;;;16.57;71.06;100658.59;5056439;28;20152;-57
2021/08/01 05:36:39;;;;;;;10.00;4.05;;;;;;;16.19;72.66;100656.28;5073984;28;20064;-61
2021/08/01 05:39:07;;;;;;;12.65;3.88;;;;;;;16.02;73.72;100659.34;5073792;28;20554;-58
2021/08/01 05:41:34;;;;;;;13.68;3.55;;;;;;;16.07;73.19;100656.31;5056173;28;20440;-58
2021/08/01 05:44:01;;;;;;;16.15;3.40;;;;;;;16.08;73.79;100657.91;5073759;28;20115;-56
2021/08/01 05:46:28;;;;;;;7.32;3.20;;;;;;;16.45;72.85;100659.41;5055343;28;20067;-58
2021/08/01 05:48:56;;;;;;;10.15;3.40;;;;;;;16.16;72.98;100659.75;5073556;28;20380;-59
2021/08/01 05:51:23;;;;;;;14.30;3.47;;;;;;;15.98;74.09;100663.97;5073981;28;20049;-61
2021/08/01 05:53:50;;;;;;;12.82;3.67;;;;;;;16.03;74.54;100665.69;5073921;28;20053;-58
2021/08/01 05:56:17;;;;;;;6.25;3.10;;;;;;;16.42;73.50;100662.09;5080643;28;20048;-57
2021/08/01 05:58:44;;;;;;;8.20;3.22;;;;;;;16.50;72.81;100656.41;5093407;28;20048;-57
2021/08/01 06:01:13;;;;;;;8.80;3.10;;;;;;;16.67;72.36;100658.88;5075976;28;20048;-58
2021/08/01 06:03:42;;;;;;;9.30;3.10;;;;;;;16.95;71.46;100660.78;5093772;28;20388;-58
2021/08/01 06:06:19;;;;;;;8.63;2.78;;;;;;;17.18;70.41;100664.59;5059081;28;20672;-57
2021/08/01 06:08:47;;;;;;;9.55;3.40;;;;;;;17.10;70.21;100669.19;5074951;28;20648;-58
2021/08/01 06:11:15;;;;;;;10.88;3.05;;;;;;;17.08;70.69;100662.34;5094111;28;20368;-57
2021/08/01 06:13:43;;;;;;;10.05;2.95;;;;;;;17.07;70.44;100655.97;5094015;28;20051;-57
2021/08/01 06:16:12;;;;;;;8.00;2.58;;;;;;;17.15;70.47;100665.31;5093815;28;20048;-58
2021/08/01 06:18:41;;;;;;;11.23;2.97;;;;;;;17.36;69.66;100666.69;5093502;28;20052;-58
2021/08/01 06:21:13;;;;;;;12.98;3.60;;;;;;;17.24;69.70;100677.09;5093498;28;20052;-59
2021/08/01 06:23:42;;;;;;;8.85;2.90;;;;;;;17.34;69.99;100677.38;5075784;28;20051;-62
2021/08/01 06:26:11;;;;;;;12.52;3.10;;;;;;;17.43;69.77;100678.00;5093660;28;20047;-58
2021/08/01 06:28:38;;;;;;;10.18;2.90;;;;;;;17.65;68.87;100677.38;5093244;28;20060;-58
2021/08/01 06:31:06;;;;;;;11.98;2.80;;;;;;;17.55;68.94;100683.50;5094074;28;20051;-58
2021/08/01 06:33:34;;;;;;;9.02;3.13;;;;;;;17.55;69.02;100679.88;5095377;28;20048;-57
2021/08/01 06:36:06;;;;;;;12.15;3.22;;;;;;;17.69;68.71;100675.47;5078616;28;20052;-57
2021/08/01 06:38:34;;;;;;;10.13;2.85;;;;;;;17.53;68.51;100683.03;5097112;28;20058;-57
2021/08/01 06:41:05;;;;;;;10.85;2.55;;;;;;;17.58;68.65;100681.94;5097462;28;20048;-63
2021/08/01 06:43:32;;;;;;;6.57;2.63;;;;;;;17.47;68.81;100687.25;5097106;28;20067;-58
2021/08/01 06:45:59;;;;;;;14.73;2.83;;;;;;;17.71;68.55;100680.69;5097428;28;20047;-57
2021/08/01 06:48:27;;;;;;;8.40;2.45;;;;;;;17.78;67.89;100678.84;5078779;28;20040;-58
2021/08/01 06:50:55;;;;;;;8.52;2.55;;;;;;;17.75;67.85;100671.22;5097467;28;20048;-57
2021/08/01 06:53:22;;;;;;;11.75;2.90;;;;;;;17.90;67.66;100672.38;5079238;28;20048;-58
2021/08/01 06:55:49;;;;;;;9.50;2.60;;;;;;;17.93;67.57;100680.81;5093270;28;20045;-59
2021/08/01 06:58:18;;;;;;;11.00;3.15;;;;;;;17.91;67.20;100682.34;5057997;28;20056;-59
2021/08/01 07:00:50;;;;;;;11.75;2.83;;;;;;;18.08;66.41;100686.72;5059036;28;20052;-60
2021/08/01 07:03:18;;;;;;;6.18;2.33;;;;;;;18.07;65.99;100685.91;5076721;28;20694;-57
2021/08/01 07:05:46;;;;;;;8.05;2.22;;;;;;;18.00;66.04;100682.94;5059029;28;20044;-58
2021/08/01 07:08:13;;;;;;;10.52;2.78;;;;;;;18.21;65.89;100688.19;5076534;28;20040;-61
2021/08/01 07:10:40;;;;;;;7.13;2.05;;;;;;;18.23;65.46;100681.09;5076605;28;20048;-57
2021/08/01 07:13:08;;;;;;;11.88;2.60;;;;;;;18.32;64.62;100686.44;5076544;28;20048;-58
2021/08/01 07:15:37;;;;;;;6.88;2.28;;;;;;;18.35;64.56;100694.88;5076753;28;20056;-56
2021/08/01 07:18:05;;;;;;;9.45;2.65;;;;;;;18.22;65.33;100696.19;5076209;28;20048;-58
2021/08/01 07:20:33;;;;;;;7.15;2.65;;;;;;;18.40;65.13;100700.19;5076424;28;20051;-59
2021/08/01 07:23:01;;;;;;;10.70;2.30;;;;;;;18.47;64.13;100702.31;5076547;28;20057;-58
2021/08/01 07:25:29;;;;;;;8.75;2.20;;;;;;;18.59;63.91;100693.81;5042262;28;20051;-59
2021/08/01 07:27:56;;;;;;;10.38;2.45;;;;;;;18.53;63.59;100701.66;5076991;28;20044;-59
2021/08/01 07:30:23;;;;;;;9.45;2.45;;;;;;;18.78;63.14;100713.31;5076402;28;20549;-57
2021/08/01 07:32:50;;;;;;;11.00;2.78;;;;;;;18.97;61.88;100721.69;5058795;28;20423;-58
2021/08/01 07:35:18;;;;;;;9.65;2.60;;;;;;;19.04;62.30;100714.25;5058446;28;20049;-59
2021/08/01 07:37:45;;;;;;;10.80;2.90;;;;;;;19.45;60.90;100709.03;5076197;28;20063;-58
2021/08/01 07:40:12;;;;;;;6.60;2.53;;;;;;;19.14;61.78;100712.84;5075358;28;20637;-58
2021/08/01 07:42:40;;;;;;;9.57;2.13;;;;;;;18.97;61.02;100714.13;5075973;28;20059;-57
2021/08/01 07:45:25;;;;;;;8.43;2.42;;;;;;;19.04;61.04;100714.25;5075633;28;20071;-58
2021/08/01 07:47:53;;;;;;;8.75;2.22;;;;;;;19.20;60.04;100714.16;5057802;28;20397;-58
2021/08/01 07:50:20;;;;;;;9.43;2.28;;;;;;;19.20;59.24;100722.53;5075561;28;20169;-57
2021/08/01 07:52:47;;;;;;;6.05;1.85;;;;;;;19.15;58.76;100720.03;5075887;28;20048;-58
2021/08/01 07:55:15;;;;;;;5.72;1.80;;;;;;;19.16;58.83;100730.03;5057863;28;20072;-58
2021/08/01 07:57:44;;;;;;;5.47;1.80;;;;;;;19.27;58.07;100725.44;5094458;28;20048;-56
2021/08/01 08:00:13;;;;;;;6.15;1.70;;;;;;;19.30;57.77;100724.72;5095570;28;20534;-59
2021/08/01 08:02:42;;;;;;;7.65;2.10;;;;;;;19.34;57.13;100722.81;5095635;28;20071;-59
2021/08/01 08:05:11;;;;;;;6.82;2.10;;;;;;;19.60;56.69;100725.66;5095963;28;20051;-58
2021/08/01 08:07:38;;;;;;;8.10;2.25;;;;;;;19.71;56.46;100723.03;5095977;28;20055;-59
2021/08/01 08:10:07;;;;;;;6.85;2.72;;;;;;;19.83;55.98;100731.22;5095630;28;20048;-57
2021/08/01 08:12:34;;;;;;;7.82;1.65;;;;;;;20.00;54.95;100728.72;5075695;28;20052;-57
2021/08/01 08:15:04;;;;;;;8.70;1.42;;;;;;;19.95;54.18;100734.63;5049521;28;20420;-59
2021/08/01 08:17:33;;;;;;;7.47;1.70;;;;;;;19.39;54.01;100733.69;5055861;28;20056;-58
2021/08/01 08:20:02;;;;;;;6.15;1.90;;;;;;;19.51;55.12;100738.28;5068410;28;20053;-58
2021/08/01 08:22:29;;;;;;;7.18;1.52;;;;;;;19.43;54.90;100736.53;5075542;28;20040;-59
2021/08/01 08:24:57;;;;;;;4.47;1.25;;;;;;;19.52;54.33;100731.50;5075087;28;20048;-59
2021/08/01 08:27:24;;;;;;;5.43;1.40;;;;;;;19.34;55.23;100739.56;5075029;28;20048;-58
2021/08/01 08:29:52;;;;;;;5.53;1.17;;;;;;;19.31;55.49;100725.53;5074675;28;20085;-62
2021/08/01 08:32:19;;;;;;;5.32;1.42;;;;;;;19.45;55.21;100735.00;5057266;28;20052;-59
2021/08/01 08:34:47;;;;;;;6.63;1.75;;;;;;;19.22;55.93;100742.50;5075488;28;20045;-59
2021/08/01 08:37:16;;;;;;;9.07;2.22;;;;;;;19.28;56.63;100740.22;5052132;28;20056;-60
2021/08/01 08:39:44;;;;;;;7.22;1.63;;;;;;;19.04;57.17;100738.56;5062534;28;20531;-58
2021/08/01 08:42:13;;;;;;;5.72;1.88;;;;;;;18.55;58.59;100737.59;5085902;28;20059;-59
2021/08/01 08:44:41;;;;;;;6.43;1.88;;;;;;;19.04;58.53;100735.78;5059534;28;20052;-55
2021/08/01 08:47:09;;;;;;;6.97;1.92;;;;;;;19.32;57.24;100741.94;5068075;28;20037;-58
2021/08/01 08:49:37;;;;;;;6.72;1.80;;;;;;;19.16;58.14;100734.81;5093663;28;20059;-56
2021/08/01 08:52:07;;;;;;;4.68;1.60;;;;;;;19.32;58.26;100730.75;5094944;28;20693;-58
2021/08/01 08:54:50;;;;;;;7.28;1.75;;;;;;;19.43;58.24;100734.56;5094416;28;20051;-58
2021/08/01 08:57:29;;;;;;;9.60;2.38;;;;;;;19.24;57.41;100737.38;5047915;28;20049;-59
2021/08/01 09:00:16;;;;;;;9.00;1.90;;;;;;;19.41;56.72;100736.91;5054556;28;20059;-57
2021/08/01 09:02:43;;;;;;;11.18;1.60;;;;;;;19.58;55.83;100736.41;5036178;28;20068;-59
2021/08/01 09:05:11;;;;;;;3.70;1.30;;;;;;;19.87;53.35;100737.69;5054238;28;20053;-57
2021/08/01 09:07:39;;;;;;;5.10;1.40;;;;;;;20.15;53.13;100741.72;5020019;28;20044;-58
2021/08/01 09:10:08;;;;;;;6.50;1.75;;;;;;;19.63;53.85;100741.69;5053943;28;20053;-58
2021/08/01 09:12:43;;;;;;;4.85;1.77;;;;;;;19.47;55.59;100741.03;5054216;28;20053;-57
2021/08/01 09:15:16;;;;;;;5.85;1.73;;;;;;;19.89;54.34;100744.50;5054798;28;20053;-57
2021/08/01 09:17:44;;;;;;;5.07;1.77;;;;;;;19.63;53.82;100738.88;5053996;28;20033;-57
2021/08/01 09:20:19;;;;;;;6.85;1.67;;;;;;;19.44;55.13;100740.97;5064989;28;20056;-59
2021/08/01 09:23:01;;;;;;;7.05;1.80;;;;;;;19.29;54.66;100745.44;5036597;28;20064;-57
2021/08/01 09:25:41;;;;;;;9.30;1.70;;;;;;;19.64;55.13;100746.09;5066551;28;20060;-57
2021/08/01 09:28:24;;;;;;;10.98;2.10;;;;;;;19.53;55.71;100747.09;5056611;28;20400;-55
2021/08/01 09:30:55;;;;;;;6.32;2.25;;;;;;;19.78;55.36;100746.34;5066099;28;20053;-56
2021/08/01 09:33:53;;;;;;;5.90;1.60;;;;;;;19.63;55.13;100741.69;5053970;28;20057;-57
2021/08/01 09:36:22;;;;;;;9.35;1.58;;;;;;;20.14;54.36;100734.53;5054885;28;20378;-57
2021/08/01 09:38:51;;;;;;;5.13;1.70;;;;;;;19.87;54.33;100740.50;5073975;28;20052;-58
2021/08/01 09:41:40;;;;;;;4.38;1.85;;;;;;;20.01;54.37;100738.69;5073462;28;20897;-57
2021/08/01 09:44:08;;;;;;;4.20;1.50;;;;;;;20.47;53.34;100735.81;5073765;28;20045;-59
2021/08/01 09:46:38;;;;;;;7.18;1.58;;;;;;;20.18;53.07;100740.19;5055858;28;20055;-57
2021/08/01 09:49:09;;;;;;;7.75;1.70;;;;;;;20.33;53.20;100738.41;5060194;28;20599;-59
2021/08/01 09:51:38;;;;;;;3.88;1.75;;;;;;;20.41;53.86;100735.34;5043069;28;20530;-60
2021/08/01 09:54:06;;;;;;;9.75;1.65;;;;;;;20.83;53.21;100735.88;5064445;28;20049;-58
2021/08/01 09:56:33;;;;;;;5.13;1.23;;;;;;;20.77;52.93;100731.81;5062193;28;20060;-59
2021/08/01 09:59:01;;;;;;;7.53;1.83;;;;;;;20.87;52.39;100725.50;5036145;28;20053;-60
2021/08/01 10:01:28;;;;;;;7.60;1.52;;;;;;;21.27;51.90;100721.97;5053037;28;20064;-59
2021/08/01 10:03:57;;;;;;;6.45;1.55;;;;;;;21.69;50.44;100711.16;5052640;28;20049;-59
2021/08/01 10:06:24;;;;;;;6.80;2.10;;;;;;;22.40;51.86;100712.47;5068487;28;20045;-36
2021/08/01 10:08:55;;;;;;;7.63;1.77;;;;;;;23.23;49.66;100711.19;5076523;28;20045;-37
2021/08/01 10:11:23;;;;;;;11.10;1.88;;;;;;;23.58;48.39;100720.88;5075428;28;20052;-38
2021/08/01 10:13:53;;;;;;;10.52;1.65;;;;;;;23.89;46.60;100706.81;5068945;28;20060;-37
2021/08/01 10:16:21;;;;;;;4.57;1.48;;;;;;;23.42;44.16;100712.84;5066943;28;20056;-38
2021/08/01 10:18:49;;;;;;;4.55;1.30;;;;;;;23.16;47.26;100710.34;5066114;28;20048;-38
2021/08/01 10:21:22;;;;;;;5.70;1.23;;;;;;;23.12;47.59;100701.91;5056253;28;20059;-38
2021/08/01 10:23:56;;;;;;;3.97;1.15;;;;;;;23.46;45.81;100708.03;5070986;28;20048;-38
2021/08/01 10:26:29;;;;;;;4.53;1.23;;;;;;;23.71;43.97;100703.19;5077436;28;20056;-39
2021/08/01 10:28:58;;;;;;;6.07;1.20;;;;;;;23.49;45.93;100701.59;5059437;28;20044;-40
2021/08/01 10:31:30;;;;;;;4.55;1.20;;;;;;;23.65;44.70;100704.81;5041907;28;20053;-37
2021/08/01 10:34:05;;;;;;;5.78;1.58;;;;;;;23.76;44.24;100705.63;5059479;28;20049;-39
2021/08/01 10:36:32;;;;;;;3.22;1.00;;;;;;;23.69;43.86;100705.63;5041060;28;20060;-38
2021/08/01 10:39:02;;;;;;;5.50;1.20;;;;;;;23.82;42.52;100689.94;5048456;28;20040;-39
2021/08/01 10:41:34;;;;;;;4.40;0.90;;;;;;;23.93;42.33;100699.19;5059115;28;20056;-38
2021/08/01 10:44:05;;;;;;;3.90;1.20;;;;;;;23.18;42.69;100693.91;5068236;28;20066;-46
2021/08/01 10:46:33;;;;;;;7.57;1.35;;;;;;;23.00;43.67;100707.09;5097265;28;20048;-38
2021/08/01 10:49:04;;;;;;;6.43;1.27;;;;;;;23.21;42.80;100699.53;5079239;28;20051;-38
2021/08/01 10:51:32;;;;;;;5.53;1.15;;;;;;;23.20;44.06;100694.31;5065046;28;20045;-39
2021/08/01 10:54:19;;;;;;;4.15;0.90;;;;;;;23.42;42.08;100693.97;5045274;28;20048;-38
2021/08/01 10:56:47;;;;;;;4.25;1.20;;;;;;;23.65;43.55;100681.50;5083982;28;20569;-39
2021/08/01 10:59:46;;;;;;;3.78;1.38;;;;;;;23.90;42.40;100694.34;5076436;28;20051;-38
2021/08/01 11:02:17;;;;;;;2.25;0.95;;;;;;;24.14;42.44;100684.28;5064155;28;20159;-37
2021/08/01 11:04:46;;;;;;;3.53;1.23;;;;;;;24.19;42.27;100681.88;5055160;28;20537;-38
2021/08/01 11:07:26;;;;;;;3.17;0.90;;;;;;;24.42;40.39;100673.75;5069847;28;20049;-38
2021/08/01 11:10:12;;;;;;;3.22;1.10;;;;;;;24.42;41.49;100670.94;5069106;28;20670;-38
2021/08/01 11:12:43;;;;;;;2.63;0.85;;;;;;;23.48;41.27;100677.50;5058746;28;20424;-39
2021/08/01 11:15:12;;;;;;;3.30;1.05;;;;;;;22.96;40.66;100678.22;5039804;28;20072;-41
2021/08/01 11:17:46;;;;;;;2.83;1.00;;;;;;;23.32;43.30;100677.09;5064885;28;20045;-39
2021/08/01 11:20:16;;;;;;;3.65;1.17;;;;;;;23.53;42.60;100670.66;5056921;28;20049;-41
2021/08/01 11:22:43;;;;;;;3.17;0.85;;;;;;;23.93;41.87;100668.22;5055836;28;20061;-41
2021/08/01 11:25:33;;;;;;;3.13;1.08;;;;;;;24.28;40.94;100661.72;5056177;28;20504;-39
2021/08/01 11:28:12;;;;;;;3.10;1.03;;;;;;;24.23;40.71;100662.16;5055670;28;20441;-40
2021/08/01 11:30:52;;;;;;;1.87;0.80;;;;;;;24.04;40.99;100673.88;5037642;28;20056;-40
2021/08/01 11:33:33;;;;;;;2.90;0.93;;;;;;;24.28;39.31;100658.91;5059280;28;20059;-39
2021/08/01 11:36:18;;;;;;;6.43;0.75;;;;;;;23.33;38.78;100678.69;5069478;28;20059;-44
2021/08/01 11:38:50;;;;;;;3.65;0.77;;;;;;;21.50;42.15;100660.94;5075686;28;20051;-60
2021/08/01 11:41:37;;;;;;;2.55;0.80;;;;;;;21.57;42.86;100663.78;5075409;28;20048;-60